Terminal Aerodrome Forecast
Issued by NWS

Home | Current Version | Previous Version | Text Only | Print | Product List | Glossary On
Versions: 1 2 3 4 5 6 7 8 9 10 11 12 13 14 15 16 17 18 19 20 21 22 23 24 25 26
000
FTUS44 KLIX 211700
TAFHUM
TAF
KHUM 211728Z 2118/2218 03008KT P6SM SCT035
     FM220000 06005KT P6SM FEW250
     FM220900 VRB03KT 4SM BR SCT250
     FM221400 01005KT P6SM SCT050=

USA.gov is the U.S. government's official web portal to all federal, state and local government web resources and services.